createdAt,value
2019-04-28T00:04:28.807Z,3.97
2019-04-28T00:09:47.422Z,3.47
2019-04-28T00:15:07.885Z,3.43
2019-04-28T00:20:43.205Z,2.97
2019-04-28T00:26:11.065Z,3.43
2019-04-28T00:31:31.153Z,3.17
2019-04-28T00:36:51.481Z,3.27
2019-04-28T00:42:11.813Z,3.00
2019-04-28T00:47:31.242Z,3.17
2019-04-28T00:52:51.762Z,3.87
2019-04-28T00:58:10.878Z,4.10
2019-04-28T01:03:29.609Z,3.15
2019-04-28T01:08:48.252Z,3.20
2019-04-28T01:14:06.946Z,3.37
2019-04-28T01:19:32.998Z,4.00
2019-04-28T01:24:51.695Z,3.83
2019-04-28T01:30:24.091Z,3.00
2019-04-28T01:35:42.841Z,3.50
2019-04-28T01:41:01.644Z,3.10
2019-04-28T01:46:20.295Z,3.40
2019-04-28T01:51:38.915Z,2.80
2019-04-28T01:56:59.214Z,3.73
2019-04-28T02:02:19.794Z,3.30
2019-04-28T02:07:40.593Z,3.37
2019-04-28T02:12:59.911Z,2.83
2019-04-28T02:18:19.909Z,3.10
2019-04-28T02:23:39.685Z,3.27
2019-04-28T02:29:00.238Z,3.23
2019-04-28T02:34:21.141Z,3.63
2019-04-28T02:39:40.988Z,2.67
2019-04-28T02:45:00.477Z,3.00
2019-04-28T02:50:23.930Z,4.40
2019-04-28T02:55:42.860Z,2.90
2019-04-28T03:01:11.147Z,3.00
2019-04-28T03:06:21.920Z,3.33
2019-04-28T03:11:42.945Z,3.37
2019-04-28T03:17:01.026Z,2.47
2019-04-28T03:22:20.382Z,2.60
2019-04-28T03:28:00.495Z,3.37
2019-04-28T03:33:25.073Z,2.40
2019-04-28T03:38:40.598Z,3.00
2019-04-28T03:44:00.470Z,3.20
2019-04-28T03:49:32.402Z,2.83
2019-04-28T03:54:51.289Z,2.80
2019-04-28T04:00:11.921Z,2.43
2019-04-28T04:05:30.884Z,3.03
2019-04-28T04:11:10.627Z,2.70
2019-04-28T04:16:31.961Z,2.60
2019-04-28T04:21:52.785Z,3.00
2019-04-28T04:27:11.755Z,2.30
2019-04-28T04:32:33.959Z,3.00
2019-04-28T04:37:50.799Z,3.37
2019-04-28T04:43:11.260Z,2.93
2019-04-28T04:48:31.193Z,3.07
2019-04-28T04:53:51.136Z,2.90
2019-04-28T04:59:10.406Z,2.60
2019-04-28T05:04:30.682Z,3.23
2019-04-28T05:09:49.623Z,2.93
2019-04-28T05:15:08.238Z,3.17
2019-04-28T05:20:26.855Z,2.40
2019-04-28T05:25:45.475Z,2.60
2019-04-28T05:31:04.029Z,2.90
2019-04-28T05:36:23.341Z,2.37
2019-04-28T05:41:42.187Z,2.90
2019-04-28T05:47:00.877Z,2.62
2019-04-28T05:52:37.236Z,2.80
2019-04-28T05:57:57.410Z,2.30
2019-04-28T06:03:17.600Z,2.90
2019-04-28T06:08:43.483Z,2.70
2019-04-28T06:14:02.548Z,2.80
2019-04-28T06:19:21.385Z,2.63
2019-04-28T06:24:41.474Z,3.10
2019-04-28T06:30:00.142Z,2.70
2019-04-28T06:35:18.774Z,3.17
2019-04-28T06:40:37.343Z,2.17
2019-04-28T06:45:55.978Z,2.93
2019-04-28T06:51:14.459Z,2.33
2019-04-28T06:56:33.026Z,2.70
2019-04-28T07:01:51.574Z,2.97
2019-04-28T07:07:10.111Z,2.77
2019-04-28T07:12:28.665Z,2.97
2019-04-28T07:17:47.208Z,2.70
2019-04-28T07:23:06.207Z,3.13
2019-04-28T07:28:24.807Z,2.67
2019-04-28T07:33:43.432Z,3.00
2019-04-28T07:39:02.042Z,2.43
2019-04-28T07:44:20.741Z,2.83
2019-04-28T07:49:39.363Z,3.43
2019-04-28T07:54:58.010Z,4.60
2019-04-28T08:00:18.301Z,4.53
2019-04-28T08:11:05.485Z,4.53
2019-04-28T08:16:24.034Z,4.33
2019-04-28T08:21:42.674Z,5.25
2019-04-28T08:27:01.218Z,4.77
2019-04-28T08:32:24.240Z,5.70
2019-04-28T08:37:42.900Z,5.13
2019-04-28T08:43:01.393Z,5.80
2019-04-28T08:48:19.944Z,5.33
2019-04-28T08:53:38.565Z,5.87
2019-04-28T08:58:57.059Z,6.23
2019-04-28T09:04:15.975Z,6.03
2019-04-28T09:09:34.637Z,5.73
2019-04-28T09:14:53.244Z,6.83
2019-04-28T09:20:11.891Z,5.43
2019-04-28T09:25:30.443Z,5.07
2019-04-28T09:30:49.368Z,4.07
2019-04-28T09:36:07.916Z,4.03
2019-04-28T09:41:26.605Z,3.70
2019-04-28T09:46:46.856Z,3.60
2019-04-28T09:52:05.493Z,3.37
2019-04-28T09:57:24.066Z,3.17
2019-04-28T10:02:43.302Z,3.60
2019-04-28T10:08:01.913Z,4.15
2019-04-28T10:13:35.634Z,4.67
2019-04-28T10:18:54.305Z,4.27
2019-04-28T10:24:12.861Z,4.37
2019-04-28T10:29:32.957Z,4.30
2019-04-28T10:34:55.020Z,5.10
2019-04-28T10:40:22.513Z,3.77
2019-04-28T10:45:54.207Z,4.60
2019-04-28T10:51:12.833Z,4.40
2019-04-28T10:56:31.459Z,2.83
2019-04-28T11:01:50.000Z,2.70
2019-04-28T11:07:10.385Z,2.80
2019-04-28T11:12:30.567Z,2.50
2019-04-28T11:17:49.207Z,2.87
2019-04-28T11:23:09.190Z,2.53
2019-04-28T11:28:27.701Z,3.20
2019-04-28T11:33:47.974Z,2.40
2019-04-28T11:39:08.933Z,2.43
2019-04-28T11:44:27.622Z,2.60
2019-04-28T11:49:46.188Z,2.80
2019-04-28T11:55:06.849Z,2.17
2019-04-28T12:00:30.200Z,1.87
2019-04-28T12:05:49.163Z,1.50
2019-04-28T12:11:21.504Z,1.80
2019-04-28T12:16:57.939Z,1.60
2019-04-28T12:22:18.646Z,1.60
2019-04-28T12:27:37.358Z,1.57
2019-04-28T12:32:55.840Z,1.90
2019-04-28T12:38:14.450Z,1.77
2019-04-28T12:43:33.048Z,1.40
2019-04-28T12:48:53.314Z,1.77
2019-04-28T12:54:13.583Z,1.40
2019-04-28T12:59:33.777Z,1.20
2019-04-28T13:04:54.043Z,1.30
2019-04-28T13:10:12.766Z,1.07
2019-04-28T13:15:31.448Z,1.70
2019-04-28T13:20:50.061Z,1.70
2019-04-28T13:26:08.626Z,2.25
2019-04-28T13:31:27.349Z,1.80
2019-04-28T13:36:45.986Z,1.90
2019-04-28T13:42:05.011Z,1.50
2019-04-28T13:47:23.633Z,1.50
2019-04-28T13:52:42.325Z,1.30
2019-04-28T13:58:02.599Z,1.33
2019-04-28T14:03:25.845Z,1.70
2019-04-28T14:08:44.573Z,1.50
2019-04-28T14:14:03.254Z,1.60
2019-04-28T14:19:21.844Z,1.40
2019-04-28T14:24:40.752Z,1.57
2019-04-28T14:29:59.356Z,1.47
2019-04-28T14:35:18.008Z,1.42
2019-04-28T14:40:36.626Z,1.47
2019-04-28T14:45:55.272Z,1.60
2019-04-28T14:51:13.991Z,1.90
2019-04-28T14:56:32.644Z,1.30
2019-04-28T15:02:09.442Z,1.73
2019-04-28T15:07:41.612Z,1.50
2019-04-28T15:13:00.408Z,1.30
2019-04-28T15:18:19.000Z,1.50
2019-04-28T15:23:37.555Z,1.53
2019-04-28T15:28:56.067Z,1.30
2019-04-28T15:34:14.776Z,1.30
2019-04-28T15:39:33.344Z,1.63
2019-04-28T15:44:51.977Z,1.73
2019-04-28T15:50:11.301Z,1.50
2019-04-28T15:55:31.413Z,1.40
2019-04-28T16:00:50.019Z,1.40
2019-04-28T16:07:24.298Z,2.80
2019-04-28T16:12:34.104Z,1.33
2019-04-28T16:17:52.723Z,1.67
2019-04-28T16:23:11.364Z,2.40
2019-04-28T16:28:29.832Z,1.40
2019-04-28T16:33:48.465Z,1.20
2019-04-28T16:39:07.721Z,1.50
2019-04-28T16:44:34.140Z,1.60
2019-04-28T16:49:52.694Z,1.87
2019-04-28T16:55:16.151Z,1.30
2019-04-28T17:00:48.527Z,1.40
2019-04-28T17:06:07.316Z,1.40
2019-04-28T17:11:25.915Z,1.40
2019-04-28T17:16:44.402Z,1.40
2019-04-28T17:22:03.116Z,1.37
2019-04-28T17:27:21.863Z,1.30
2019-04-28T17:32:40.508Z,1.30
2019-04-28T17:38:06.540Z,1.40
2019-04-28T17:43:19.597Z,1.50
2019-04-28T17:48:42.967Z,1.70
2019-04-28T17:54:01.590Z,1.50
2019-04-28T17:59:20.252Z,1.37
2019-04-28T18:04:52.116Z,1.70
2019-04-28T18:10:12.380Z,2.20
2019-04-28T18:15:35.461Z,1.67
2019-04-28T18:20:54.157Z,1.80
2019-04-28T18:26:12.712Z,1.60
2019-04-28T18:31:42.188Z,1.93
2019-04-28T18:37:05.779Z,1.83
2019-04-28T18:42:25.958Z,2.10
2019-04-28T18:47:44.629Z,2.30
2019-04-28T18:53:03.242Z,2.07
2019-04-28T18:58:21.868Z,2.10
2019-04-28T19:03:40.499Z,2.60
2019-04-28T19:09:06.494Z,2.60
2019-04-28T19:14:26.905Z,2.60
2019-04-28T19:19:45.646Z,2.70
2019-04-28T19:25:06.064Z,2.77
2019-04-28T19:30:24.948Z,3.15
2019-04-28T19:35:43.583Z,2.90
2019-04-28T19:41:02.280Z,4.37
2019-04-28T19:46:21.087Z,2.85
2019-04-28T19:51:39.713Z,3.50
2019-04-28T19:56:59.972Z,3.10
2019-04-28T20:02:18.672Z,3.63
2019-04-28T20:07:37.231Z,3.50
2019-04-28T20:12:55.877Z,4.07
2019-04-28T20:18:14.497Z,2.90
2019-04-28T20:23:33.189Z,3.13
2019-04-28T20:28:51.710Z,2.98
2019-04-28T20:34:10.407Z,2.90
2019-04-28T20:39:33.375Z,3.27
2019-04-28T20:44:52.044Z,3.20
2019-04-28T20:50:10.758Z,3.10
2019-04-28T20:55:29.856Z,3.43
2019-04-28T21:00:48.415Z,3.50
2019-04-28T21:06:07.842Z,3.30
2019-04-28T21:11:26.482Z,3.03
2019-04-28T21:16:44.963Z,3.53
2019-04-28T21:22:03.856Z,3.63
2019-04-28T21:27:22.398Z,3.17
2019-04-28T21:32:41.083Z,3.20
2019-04-28T21:37:59.692Z,2.57
2019-04-28T21:43:26.002Z,2.60
2019-04-28T21:48:46.586Z,2.90
2019-04-28T21:54:05.284Z,3.10
2019-04-28T21:59:25.461Z,3.02
2019-04-28T22:04:47.138Z,3.80
2019-04-28T22:10:08.971Z,3.10
2019-04-28T22:15:29.305Z,3.83
2019-04-28T22:20:48.066Z,3.63
2019-04-28T22:26:08.523Z,3.17
2019-04-28T22:31:27.569Z,3.70
2019-04-28T22:36:47.848Z,4.00
2019-04-28T22:42:06.549Z,4.60
2019-04-28T22:47:27.365Z,4.23
2019-04-28T22:52:46.099Z,3.60
2019-04-28T22:58:25.458Z,4.00
2019-04-28T23:03:45.754Z,4.60
2019-04-28T23:09:05.673Z,4.97
2019-04-28T23:14:24.160Z,5.20
2019-04-28T23:19:44.044Z,4.97
2019-04-28T23:25:02.586Z,4.90
2019-04-28T23:30:38.747Z,4.90
2019-04-28T23:35:57.327Z,5.70
2019-04-28T23:41:26.533Z,6.37
2019-04-28T23:47:04.895Z,7.23
2019-04-28T23:52:40.480Z,6.30
2019-04-28T23:57:59.194Z,6.50
